Time;durP1;ratioP1;P1;durP2;ratioP2;P2;SDS_P1;SDS_P2;PMS_P1;PMS_P2;Temp;Humidity;BMP_temperature;BMP_pressure;BME280_temperature;BME280_humidity;BME280_pressure;Samples;Min_cycle;Max_cycle;Signal;HPM_P1;HPM_P2
2023/04/01 00:01:56;;;;;;;;;;;;;;;;;;5093392;28;19908;-68
2023/04/01 00:04:22;;;;;;;;;;;;;;;;;;5093590;28;19908;-68
2023/04/01 00:06:48;;;;;;;;;;;;;;;;;;5093540;28;19962;-68
2023/04/01 00:09:14;;;;;;;;;;;;;;;;;;5093119;28;19908;-68
2023/04/01 00:11:40;;;;;;;;;;;;;;;;;;5093676;28;19912;-68
2023/04/01 00:14:06;;;;;;;;;;;;;;;;;;5093542;28;20383;-68
2023/04/01 00:16:32;;;;;;;;;;;;;;;;;;5093103;28;20365;-68
2023/04/01 00:18:58;;;;;;;;;;;;;;;;;;5094469;28;19998;-67
2023/04/01 00:21:25;;;;;;;;;;;;;;;;;;5097403;28;19909;-67
2023/04/01 00:23:50;;;;;;;;;;;;;;;;;;5096933;28;19912;-67
2023/04/01 00:26:18;;;;;;;;;;;;;;;;;;5097202;28;19908;-67
2023/04/01 00:28:44;;;;;;;;;;;;;;;;;;5097094;28;20000;-67
2023/04/01 00:31:10;;;;;;;;;;;;;;;;;;5096684;28;19955;-67
2023/04/01 00:33:36;;;;;;;;;;;;;;;;;;5096738;28;19920;-67
2023/04/01 00:36:02;;;;;;;;;;;;;;;;;;5096924;28;19977;-67
2023/04/01 00:38:28;;;;;;;;;;;;;;;;;;5096531;28;19998;-67
2023/04/01 00:40:54;;;;;;;;;;;;;;;;;;5096804;28;19908;-66
2023/04/01 00:43:20;;;;;;;;;;;;;;;;;;5096857;28;19908;-66
2023/04/01 00:45:46;;;;;;;;;;;;;;;;;;5096443;28;19908;-67
2023/04/01 00:48:12;;;;;;;;;;;;;;;;;;5096794;28;19915;-67
2023/04/01 00:50:38;;;;;;;;;;;;;;;;;;5096337;28;19931;-66
2023/04/01 00:53:04;;;;;;;;;;;;;;;;;;5095364;28;19939;-67
2023/04/01 00:55:30;;;;;;;;;;;;;;;;;;5096615;28;19951;-68
2023/04/01 00:57:56;;;;;;;;;;;;;;;;;;5096195;28;19966;-68
2023/04/01 01:00:22;;;;;;;;;;;;;;;;;;5096574;28;19908;-68
2023/04/01 01:02:48;;;;;;;;;;;;;;;;;;5096574;28;19914;-69
2023/04/01 01:05:14;;;;;;;;;;;;;;;;;;5096111;28;20003;-68
2023/04/01 01:07:40;;;;;;;;;;;;;;;;;;5096520;28;19912;-68
2023/04/01 01:10:06;;;;;;;;;;;;;;;;;;5096391;28;20019;-68
2023/04/01 01:12:32;;;;;;;;;;;;;;;;;;5095817;28;19916;-68
2023/04/01 01:14:58;;;;;;;;;;;;;;;;;;5096312;28;19908;-68
2023/04/01 01:17:24;;;;;;;;;;;;;;;;;;5095021;28;19908;-68
2023/04/01 01:19:50;;;;;;;;;;;;;;;;;;5095808;28;20332;-68
2023/04/01 01:22:16;;;;;;;;;;;;;;;;;;5096137;28;19912;-69
2023/04/01 01:24:42;;;;;;;;;;;;;;;;;;5096375;28;20418;-68
2023/04/01 01:27:08;;;;;;;;;;;;;;;;;;5095639;28;20406;-68
2023/04/01 01:29:34;;;;;;;;;;;;;;;;;;5096413;28;19950;-68
2023/04/01 01:32:00;;;;;;;;;;;;;;;;;;5096083;28;19962;-68
2023/04/01 01:34:26;;;;;;;;;;;;;;;;;;5095562;28;20001;-68
2023/04/01 01:36:52;;;;;;;;;;;;;;;;;;5096115;28;20383;-67
2023/04/01 01:39:18;;;;;;;;;;;;;;;;;;5095861;28;20352;-68
2023/04/01 01:41:44;;;;;;;;;;;;;;;;;;5095339;28;19935;-68
2023/04/01 01:44:10;;;;;;;;;;;;;;;;;;5095692;28;19915;-67
2023/04/01 01:46:36;;;;;;;;;;;;;;;;;;5095702;28;19943;-68
2023/04/01 01:49:02;;;;;;;;;;;;;;;;;;5095270;28;20272;-67
2023/04/01 01:51:28;;;;;;;;;;;;;;;;;;5095590;28;19908;-68
2023/04/01 01:53:54;;;;;;;;;;;;;;;;;;5095223;28;19937;-67
2023/04/01 01:56:21;;;;;;;;;;;;;;;;;;5095508;28;19915;-67
2023/04/01 01:58:47;;;;;;;;;;;;;;;;;;5095420;28;19931;-68
2023/04/01 02:01:13;;;;;;;;;;;;;;;;;;5095179;28;20369;-68
2023/04/01 02:03:39;;;;;;;;;;;;;;;;;;5095309;28;19908;-68
2023/04/01 02:06:05;;;;;;;;;;;;;;;;;;5095718;28;19961;-68
2023/04/01 02:08:31;;;;;;;;;;;;;;;;;;5094900;28;19908;-68
2023/04/01 02:10:57;;;;;;;;;;;;;;;;;;5095203;28;19908;-67
2023/04/01 02:13:23;;;;;;;;;;;;;;;;;;5095065;28;19916;-68
2023/04/01 02:15:49;;;;;;;;;;;;;;;;;;5094874;28;19944;-68
2023/04/01 02:18:15;;;;;;;;;;;;;;;;;;5095080;28;19951;-68
2023/04/01 02:20:41;;;;;;;;;;;;;;;;;;5095056;28;19912;-68
2023/04/01 02:23:07;;;;;;;;;;;;;;;;;;5094554;28;19908;-68
2023/04/01 02:25:33;;;;;;;;;;;;;;;;;;5094938;28;19951;-68
2023/04/01 02:27:59;;;;;;;;;;;;;;;;;;5094890;28;19908;-68
2023/04/01 02:30:25;;;;;;;;;;;;;;;;;;5094378;28;19915;-68
2023/04/01 02:32:52;;;;;;;;;;;;;;;;;;5094555;28;20006;-68
2023/04/01 02:35:18;;;;;;;;;;;;;;;;;;5094731;28;19962;-68
2023/04/01 02:37:44;;;;;;;;;;;;;;;;;;5094396;28;20399;-68
2023/04/01 02:40:10;;;;;;;;;;;;;;;;;;5094674;28;19991;-68
2023/04/01 02:42:36;;;;;;;;;;;;;;;;;;5094151;28;19950;-68
2023/04/01 02:45:02;;;;;;;;;;;;;;;;;;5094233;28;20380;-68
2023/04/01 02:47:28;;;;;;;;;;;;;;;;;;5095137;28;20284;-68
2023/04/01 02:49:58;;;;;;;;;;;;;;;;;;5094546;28;19912;-68
2023/04/01 02:52:24;;;;;;;;;;;;;;;;;;5093988;28;19919;-68
2023/04/01 02:54:50;;;;;;;;;;;;;;;;;;5094411;28;20326;-69
2023/04/01 02:57:16;;;;;;;;;;;;;;;;;;5093942;28;19915;-68
2023/04/01 02:59:42;;;;;;;;;;;;;;;;;;5094387;28;19969;-68
2023/04/01 03:02:08;;;;;;;;;;;;;;;;;;5094353;28;19908;-68
2023/04/01 03:04:34;;;;;;;;;;;;;;;;;;5093876;28;19912;-68
2023/04/01 03:07:00;;;;;;;;;;;;;;;;;;5094224;28;20276;-68
2023/04/01 03:09:26;;;;;;;;;;;;;;;;;;5094170;28;19957;-69
2023/04/01 03:11:52;;;;;;;;;;;;;;;;;;5093683;28;19908;-68
2023/04/01 03:14:18;;;;;;;;;;;;;;;;;;5094119;28;19908;-68
2023/04/01 03:16:44;;;;;;;;;;;;;;;;;;5094154;28;19962;-68
2023/04/01 03:19:10;;;;;;;;;;;;;;;;;;5093687;28;19954;-69
2023/04/01 03:21:36;;;;;;;;;;;;;;;;;;5093948;28;19940;-69
2023/04/01 03:24:02;;;;;;;;;;;;;;;;;;5094017;28;19909;-69
2023/04/01 03:26:28;;;;;;;;;;;;;;;;;;5093543;28;19969;-69
2023/04/01 03:28:54;;;;;;;;;;;;;;;;;;5093894;28;19958;-68
2023/04/01 03:31:20;;;;;;;;;;;;;;;;;;5093880;28;19908;-69
2023/04/01 03:33:47;;;;;;;;;;;;;;;;;;5093853;28;19927;-68
2023/04/01 03:36:13;;;;;;;;;;;;;;;;;;5093916;28;19908;-68
2023/04/01 03:38:39;;;;;;;;;;;;;;;;;;5094110;28;19915;-69
2023/04/01 03:41:05;;;;;;;;;;;;;;;;;;5093473;28;19908;-68
2023/04/01 03:43:30;;;;;;;;;;;;;;;;;;5093803;28;20284;-69
2023/04/01 03:45:57;;;;;;;;;;;;;;;;;;5094071;28;19915;-67
2023/04/01 03:48:23;;;;;;;;;;;;;;;;;;5093389;28;19985;-67
2023/04/01 03:50:49;;;;;;;;;;;;;;;;;;5093754;28;19908;-68
2023/04/01 03:53:15;;;;;;;;;;;;;;;;;;5093691;28;19986;-68
2023/04/01 03:55:41;;;;;;;;;;;;;;;;;;5097271;28;19909;-67
2023/04/01 03:58:07;;;;;;;;;;;;;;;;;;5097768;28;19912;-67
2023/04/01 04:00:33;;;;;;;;;;;;;;;;;;5097315;28;20010;-67
2023/04/01 04:02:59;;;;;;;;;;;;;;;;;;5097657;28;19908;-68
2023/04/01 04:05:25;;;;;;;;;;;;;;;;;;5096397;28;20284;-68
2023/04/01 04:07:51;;;;;;;;;;;;;;;;;;5097241;28;19908;-68
2023/04/01 04:10:17;;;;;;;;;;;;;;;;;;5097687;28;19908;-69
2023/04/01 04:12:43;;;;;;;;;;;;;;;;;;5097393;28;19917;-69
2023/04/01 04:15:09;;;;;;;;;;;;;;;;;;5097241;28;20284;-68
2023/04/01 04:17:35;;;;;;;;;;;;;;;;;;5097457;28;20012;-68
2023/04/01 04:20:01;;;;;;;;;;;;;;;;;;5097415;28;19916;-68
2023/04/01 04:22:27;;;;;;;;;;;;;;;;;;5096912;28;19908;-68
2023/04/01 04:24:53;;;;;;;;;;;;;;;;;;5097314;28;20082;-68
2023/04/01 04:27:19;;;;;;;;;;;;;;;;;;5097205;28;19909;-68
2023/04/01 04:29:45;;;;;;;;;;;;;;;;;;5096899;28;19908;-69
2023/04/01 04:32:11;;;;;;;;;;;;;;;;;;5096934;28;20318;-69
2023/04/01 04:34:37;;;;;;;;;;;;;;;;;;5097335;28;20342;-68
2023/04/01 04:37:02;;;;;;;;;;;;;;;;;;5096702;28;19908;-69
2023/04/01 04:39:28;;;;;;;;;;;;;;;;;;5097050;28;19908;-68
2023/04/01 04:41:54;;;;;;;;;;;;;;;;;;5097233;28;19953;-69
2023/04/01 04:44:20;;;;;;;;;;;;;;;;;;5096579;28;19908;-69
2023/04/01 04:46:46;;;;;;;;;;;;;;;;;;5096945;28;19908;-68
2023/04/01 04:49:12;;;;;;;;;;;;;;;;;;5095534;28;19930;-68
2023/04/01 04:51:38;;;;;;;;;;;;;;;;;;5096242;28;20049;-68
2023/04/01 04:54:04;;;;;;;;;;;;;;;;;;5096633;28;19917;-68
2023/04/01 04:56:30;;;;;;;;;;;;;;;;;;5096684;28;19909;-68
2023/04/01 04:58:56;;;;;;;;;;;;;;;;;;5096163;28;19994;-68
2023/04/01 05:01:22;;;;;;;;;;;;;;;;;;5096496;28;20057;-68
2023/04/01 05:03:48;;;;;;;;;;;;;;;;;;5096128;28;19953;-68
2023/04/01 05:06:14;;;;;;;;;;;;;;;;;;5096014;28;19909;-67
2023/04/01 05:08:40;;;;;;;;;;;;;;;;;;5096604;28;19912;-68
2023/04/01 05:11:06;;;;;;;;;;;;;;;;;;5095969;28;19966;-68
2023/04/01 05:13:32;;;;;;;;;;;;;;;;;;5096184;28;19955;-68
2023/04/01 05:15:58;;;;;;;;;;;;;;;;;;5096303;28;19908;-68
2023/04/01 05:18:24;;;;;;;;;;;;;;;;;;5095829;28;19916;-68
2023/04/01 05:20:50;;;;;;;;;;;;;;;;;;5096265;28;19930;-68
2023/04/01 05:23:16;;;;;;;;;;;;;;;;;;5096190;28;19908;-68
2023/04/01 05:25:42;;;;;;;;;;;;;;;;;;5095768;28;19946;-68
2023/04/01 05:28:08;;;;;;;;;;;;;;;;;;5096119;28;20257;-68
2023/04/01 05:30:34;;;;;;;;;;;;;;;;;;5095973;28;19912;-68
2023/04/01 05:33:00;;;;;;;;;;;;;;;;;;5095429;28;19960;-68
2023/04/01 05:35:26;;;;;;;;;;;;;;;;;;5095950;28;19960;-68
2023/04/01 05:37:52;;;;;;;;;;;;;;;;;;5095913;28;19916;-68
2023/04/01 05:40:18;;;;;;;;;;;;;;;;;;5095448;28;19909;-69
2023/04/01 05:42:44;;;;;;;;;;;;;;;;;;5095790;28;19919;-68
2023/04/01 05:45:10;;;;;;;;;;;;;;;;;;5095803;28;19919;-68
2023/04/01 05:47:36;;;;;;;;;;;;;;;;;;5095260;28;19908;-68
2023/04/01 05:50:02;;;;;;;;;;;;;;;;;;5095645;28;19908;-68
2023/04/01 05:52:28;;;;;;;;;;;;;;;;;;5095515;28;19963;-68
2023/04/01 05:54:54;;;;;;;;;;;;;;;;;;5095177;28;19919;-67
2023/04/01 05:57:20;;;;;;;;;;;;;;;;;;5095456;28;20261;-68
2023/04/01 05:59:46;;;;;;;;;;;;;;;;;;5095481;28;19930;-68
2023/04/01 06:02:12;;;;;;;;;;;;;;;;;;5094876;28;19908;-68
2023/04/01 06:04:38;;;;;;;;;;;;;;;;;;5095554;28;19908;-67
2023/04/01 06:07:04;;;;;;;;;;;;;;;;;;5094945;28;19909;-68
2023/04/01 06:09:30;;;;;;;;;;;;;;;;;;5095445;28;19915;-68
2023/04/01 06:11:56;;;;;;;;;;;;;;;;;;5095141;28;19908;-68
2023/04/01 06:14:22;;;;;;;;;;;;;;;;;;5094800;28;19916;-69
2023/04/01 06:16:48;;;;;;;;;;;;;;;;;;5094248;28;19908;-68
2023/04/01 06:19:14;;;;;;;;;;;;;;;;;;5095072;28;19919;-68
2023/04/01 06:21:40;;;;;;;;;;;;;;;;;;5094586;28;20002;-68
2023/04/01 06:24:06;;;;;;;;;;;;;;;;;;5095037;28;19931;-68
2023/04/01 06:26:32;;;;;;;;;;;;;;;;;;5094918;28;20347;-68
2023/04/01 06:28:57;;;;;;;;;;;;;;;;;;5094511;28;19908;-68
2023/04/01 06:31:23;;;;;;;;;;;;;;;;;;5094909;28;20003;-68
2023/04/01 06:33:49;;;;;;;;;;;;;;;;;;5094548;28;19920;-68
2023/04/01 06:36:15;;;;;;;;;;;;;;;;;;5094419;28;19908;-68
2023/04/01 06:38:41;;;;;;;;;;;;;;;;;;5094707;28;19930;-68
2023/04/01 06:41:07;;;;;;;;;;;;;;;;;;5094637;28;19915;-68
2023/04/01 06:43:33;;;;;;;;;;;;;;;;;;5094199;28;19912;-68
2023/04/01 06:45:59;;;;;;;;;;;;;;;;;;5094419;28;20269;-68
2023/04/01 06:48:25;;;;;;;;;;;;;;;;;;5094483;28;19908;-67
2023/04/01 06:50:51;;;;;;;;;;;;;;;;;;5094088;28;20042;-68
2023/04/01 06:53:17;;;;;;;;;;;;;;;;;;5094232;28;19920;-68
2023/04/01 06:55:43;;;;;;;;;;;;;;;;;;5094643;28;19912;-68
2023/04/01 06:58:09;;;;;;;;;;;;;;;;;;5093986;28;19908;-68
2023/04/01 07:00:35;;;;;;;;;;;;;;;;;;5094349;28;20356;-68
2023/04/01 07:03:02;;;;;;;;;;;;;;;;;;5094553;28;19915;-68
2023/04/01 07:05:28;;;;;;;;;;;;;;;;;;5093788;28;19916;-68
2023/04/01 07:07:54;;;;;;;;;;;;;;;;;;5094117;28;19912;-68
2023/04/01 07:10:20;;;;;;;;;;;;;;;;;;5093748;28;19961;-68
2023/04/01 07:12:46;;;;;;;;;;;;;;;;;;5094015;28;19912;-68
2023/04/01 07:15:12;;;;;;;;;;;;;;;;;;5094145;28;19908;-68
2023/04/01 07:17:38;;;;;;;;;;;;;;;;;;5093731;28;20367;-67
2023/04/01 07:20:04;;;;;;;;;;;;;;;;;;5094045;28;20431;-68
2023/04/01 07:22:30;;;;;;;;;;;;;;;;;;5094010;28;19908;-68
2023/04/01 07:24:57;;;;;;;;;;;;;;;;;;5093504;28;19916;-68
2023/04/01 07:27:23;;;;;;;;;;;;;;;;;;5093836;28;20279;-68
2023/04/01 07:32:16;;;;;;;;;;;;;;;;;;5111362;27;19916;-68
2023/04/01 07:37:01;;;;;;;;;;;;;;;;;;5091835;27;20385;-69
2023/04/01 07:39:27;;;;;;;;;;;;;;;;;;5090892;28;19912;-67
2023/04/01 07:41:52;;;;;;;;;;;;;;;;;;5091209;28;19909;-67
2023/04/01 07:44:18;;;;;;;;;;;;;;;;;;5091218;28;19932;-67
2023/04/01 07:49:49;;;;;;;;;;;;;;;;;;5091574;27;19931;-66
2023/04/01 07:52:15;;;;;;;;;;;;;;;;;;5091215;28;19975;-67
2023/04/01 07:54:41;;;;;;;;;;;;;;;;;;5090839;28;20007;-67
2023/04/01 07:57:07;;;;;;;;;;;;;;;;;;5091204;28;19909;-67
2023/04/01 08:01:59;;;;;;;;;;;;;;;;;;5091529;27;19912;-67
2023/04/01 08:04:25;;;;;;;;;;;;;;;;;;5091194;28;20010;-67
2023/04/01 08:06:51;;;;;;;;;;;;;;;;;;5091055;28;20360;-67
2023/04/01 08:09:17;;;;;;;;;;;;;;;;;;5091755;28;20464;-67
2023/04/01 08:11:43;;;;;;;;;;;;;;;;;;5091033;28;19908;-67
2023/04/01 08:16:00;;;;;;;;;;;;;;;;;;5111783;27;20268;-68
2023/04/01 08:18:26;;;;;;;;;;;;;;;;;;5112196;28;19911;-67
2023/04/01 08:20:52;;;;;;;;;;;;;;;;;;5111281;28;19954;-67
2023/04/01 08:25:54;;;;;;;;;;;;;;;;;;5111988;27;19916;-67
2023/04/01 08:33:57;;;;;;;;;;;;;;;;;;5092043;27;19916;-68
2023/04/01 08:36:23;;;;;;;;;;;;;;;;;;5090820;28;20048;-68
2023/04/01 08:41:01;;;;;;;;;;;;;;;;;;5111940;27;19916;-68
2023/04/01 08:43:27;;;;;;;;;;;;;;;;;;5111157;28;20004;-68
2023/04/01 08:52:41;;;;;;;;;;;;;;;;;;5111921;27;19916;-68
2023/04/01 08:55:07;;;;;;;;;;;;;;;;;;5111748;28;20006;-68
2023/04/01 08:57:33;;;;;;;;;;;;;;;;;;5111245;28;19912;-68
2023/04/01 09:00:00;;;;;;;;;;;;;;;;;;5110245;28;20346;-68
2023/04/01 09:05:03;;;;;;;;;;;;;;;;;;5111081;27;19934;-68
2023/04/01 09:07:29;;;;;;;;;;;;;;;;;;5111811;28;19991;-68
2023/04/01 09:11:48;;;;;;;;;;;;;;;;;;5090938;27;20388;-70
2023/04/01 09:14:24;;;;;;;;;;;;;;;;;;5091663;27;20311;-70
2023/04/01 09:18:13;;;;;;;;;;;;;;;;;;5111602;27;19916;-68
2023/04/01 09:20:39;;;;;;;;;;;;;;;;;;5111593;28;19912;-68
2023/04/01 09:23:53;;;;;;;;;;;;;;;;;;5111456;27;19916;-67
2023/04/01 09:26:30;;;;;;;;;;;;;;;;;;5091371;27;19993;-68
2023/04/01 09:34:22;;;;;;;;;;;;;;;;;;5174273;27;19915;-68
2023/04/01 09:40:29;;;;;;;;;;;;;;;;;;5153084;27;20013;-69
2023/04/01 09:42:55;;;;;;;;;;;;;;;;;;5152821;27;19956;-69
2023/04/01 09:45:21;;;;;;;;;;;;;;;;;;5152328;27;19915;-69
2023/04/01 09:49:21;;;;;;;;;;;;;;;;;;5111911;27;20380;-68
2023/04/01 09:54:08;;;;;;;;;;;;;;;;;;5090765;27;19923;-68
2023/04/01 09:56:34;;;;;;;;;;;;;;;;;;5091177;28;20002;-67
2023/04/01 09:59:00;;;;;;;;;;;;;;;;;;5091129;28;19951;-68
2023/04/01 10:01:27;;;;;;;;;;;;;;;;;;5090803;28;20373;-69
2023/04/01 10:03:53;;;;;;;;;;;;;;;;;;5089782;28;19934;-69
2023/04/01 10:06:20;;;;;;;;;;;;;;;;;;5090734;28;19916;-69
2023/04/01 10:08:51;;;;;;;;;;;;;;;;;;5091018;28;19910;-68
2023/04/01 10:11:17;;;;;;;;;;;;;;;;;;5089893;28;20376;-68
2023/04/01 10:13:43;;;;;;;;;;;;;;;;;;5090549;28;19958;-71
2023/04/01 10:17:07;;;;;;;;;;;;;;;;;;5091614;27;20296;-68
2023/04/01 10:20:32;;;;;;;;;;;;;;;;;;5111443;27;19920;-70
2023/04/01 10:22:58;;;;;;;;;;;;;;;;;;5111791;28;19918;-68
2023/04/01 10:26:59;;;;;;;;;;;;;;;;;;5091272;27;19912;-69
2023/04/01 10:31:54;;;;;;;;;;;;;;;;;;5153056;27;20018;-69
2023/04/01 10:34:20;;;;;;;;;;;;;;;;;;5152581;27;19946;-68
2023/04/01 10:38:05;;;;;;;;;;;;;;;;;;5111925;27;19916;-69
2023/04/01 10:40:31;;;;;;;;;;;;;;;;;;5111588;28;20011;-69
2023/04/01 10:42:57;;;;;;;;;;;;;;;;;;5111178;28;19908;-69
2023/04/01 10:45:22;;;;;;;;;;;;;;;;;;5111568;28;20372;-68
2023/04/01 10:47:48;;;;;;;;;;;;;;;;;;5111678;28;20373;-70
2023/04/01 10:50:14;;;;;;;;;;;;;;;;;;5111106;28;20429;-70
2023/04/01 10:52:40;;;;;;;;;;;;;;;;;;5111457;28;20046;-67
2023/04/01 10:55:07;;;;;;;;;;;;;;;;;;5111321;28;19908;-68
2023/04/01 10:59:32;;;;;;;;;;;;;;;;;;5091501;28;19916;-68
2023/04/01 11:01:59;;;;;;;;;;;;;;;;;;5091276;28;19973;-68
2023/04/01 11:07:41;;;;;;;;;;;;;;;;;;5112313;27;19939;-68
2023/04/01 11:10:07;;;;;;;;;;;;;;;;;;5111214;28;20405;-68
2023/04/01 11:15:43;;;;;;;;;;;;;;;;;;5092142;27;19913;-68
2023/04/01 11:18:09;;;;;;;;;;;;;;;;;;5090787;28;20007;-68
2023/04/01 11:20:35;;;;;;;;;;;;;;;;;;5091235;28;19916;-67
2023/04/01 11:25:47;;;;;;;;;;;;;;;;;;5111291;27;19923;-69
2023/04/01 11:28:13;;;;;;;;;;;;;;;;;;5111663;28;20000;-69
2023/04/01 11:30:39;;;;;;;;;;;;;;;;;;5111230;28;19908;-69
2023/04/01 11:33:05;;;;;;;;;;;;;;;;;;5111477;28;19995;-68
2023/04/01 11:36:53;;;;;;;;;;;;;;;;;;5092147;27;19917;-68
2023/04/01 11:41:42;;;;;;;;;;;;;;;;;;5174040;27;20356;-67
2023/04/01 11:44:08;;;;;;;;;;;;;;;;;;5173659;27;19950;-68
2023/04/01 11:47:50;;;;;;;;;;;;;;;;;;5111912;27;19916;-68
2023/04/01 11:50:16;;;;;;;;;;;;;;;;;;5111626;28;20027;-69
2023/04/01 11:52:42;;;;;;;;;;;;;;;;;;5111146;28;19961;-68
2023/04/01 11:55:08;;;;;;;;;;;;;;;;;;5111583;28;19908;-67
2023/04/01 11:57:34;;;;;;;;;;;;;;;;;;5111582;28;19995;-69
2023/04/01 12:01:19;;;;;;;;;;;;;;;;;;5091800;28;20291;-68
2023/04/01 12:04:46;;;;;;;;;;;;;;;;;;5091865;27;19916;-67
2023/04/01 12:07:12;;;;;;;;;;;;;;;;;;5090927;28;20011;-68
2023/04/01 12:09:37;;;;;;;;;;;;;;;;;;5091260;28;19956;-68
2023/04/01 12:12:03;;;;;;;;;;;;;;;;;;5091205;28;19908;-68
2023/04/01 12:14:29;;;;;;;;;;;;;;;;;;5090717;28;19962;-68
2023/04/01 12:16:55;;;;;;;;;;;;;;;;;;5091101;28;19920;-68
2023/04/01 12:20:43;;;;;;;;;;;;;;;;;;5071065;28;20300;-69
2023/04/01 12:23:09;;;;;;;;;;;;;;;;;;5071399;28;20007;-69
2023/04/01 12:25:35;;;;;;;;;;;;;;;;;;5070987;28;19909;-68
2023/04/01 12:28:15;;;;;;;;;;;;;;;;;;5111570;27;19916;-69
2023/04/01 12:30:41;;;;;;;;;;;;;;;;;;5111706;28;20093;-68
2023/04/01 12:33:07;;;;;;;;;;;;;;;;;;5111692;28;20447;-69
2023/04/01 12:35:33;;;;;;;;;;;;;;;;;;5111109;28;19908;-69
2023/04/01 12:38:08;;;;;;;;;;;;;;;;;;5112105;27;19916;-67
2023/04/01 12:41:10;;;;;;;;;;;;;;;;;;5091017;27;19912;-68
2023/04/01 12:43:36;;;;;;;;;;;;;;;;;;5091186;28;20296;-68
2023/04/01 12:46:02;;;;;;;;;;;;;;;;;;5091186;28;20002;-68
2023/04/01 12:48:28;;;;;;;;;;;;;;;;;;5090776;28;19915;-68
2023/04/01 12:50:54;;;;;;;;;;;;;;;;;;5091216;28;19908;-68
2023/04/01 12:53:20;;;;;;;;;;;;;;;;;;5091057;28;19912;-68
2023/04/01 12:55:50;;;;;;;;;;;;;;;;;;5089329;28;19915;-67
2023/04/01 12:58:20;;;;;;;;;;;;;;;;;;5091010;28;19995;-68
2023/04/01 13:04:34;;;;;;;;;;;;;;;;;;5071446;28;19923;-68
2023/04/01 13:07:52;;;;;;;;;;;;;;;;;;5091920;27;20299;-68
2023/04/01 13:10:18;;;;;;;;;;;;;;;;;;5090914;28;20006;-68
2023/04/01 13:12:44;;;;;;;;;;;;;;;;;;5091180;28;19995;-68
2023/04/01 13:18:24;;;;;;;;;;;;;;;;;;5090945;27;19923;-68
2023/04/01 13:20:50;;;;;;;;;;;;;;;;;;5091301;28;20011;-69
2023/04/01 13:23:16;;;;;;;;;;;;;;;;;;5090827;28;20373;-69
2023/04/01 13:26:37;;;;;;;;;;;;;;;;;;5112506;27;19922;-68
2023/04/01 13:29:03;;;;;;;;;;;;;;;;;;5111852;28;20003;-68
2023/04/01 13:32:33;;;;;;;;;;;;;;;;;;5132379;27;19922;-69
2023/04/01 13:34:59;;;;;;;;;;;;;;;;;;5132160;28;20002;-68
2023/04/01 13:37:25;;;;;;;;;;;;;;;;;;5131600;28;19994;-69
2023/04/01 13:39:51;;;;;;;;;;;;;;;;;;5131960;27;19908;-68
2023/04/01 13:42:17;;;;;;;;;;;;;;;;;;5131929;28;19907;-68
2023/04/01 13:44:43;;;;;;;;;;;;;;;;;;5131585;28;19911;-68
2023/04/01 13:47:09;;;;;;;;;;;;;;;;;;5132068;28;19960;-68
2023/04/01 13:49:35;;;;;;;;;;;;;;;;;;5131558;28;20006;-68
2023/04/01 13:52:01;;;;;;;;;;;;;;;;;;5131692;28;20363;-68
2023/04/01 13:54:27;;;;;;;;;;;;;;;;;;5131846;28;20367;-68
2023/04/01 13:56:53;;;;;;;;;;;;;;;;;;5131670;28;20465;-68
2023/04/01 13:59:20;;;;;;;;;;;;;;;;;;5131226;28;19915;-69
2023/04/01 14:01:46;;;;;;;;;;;;;;;;;;5131828;27;19915;-68
2023/04/01 14:04:12;;;;;;;;;;;;;;;;;;5131886;28;20318;-68
2023/04/01 14:06:38;;;;;;;;;;;;;;;;;;5131153;27;19998;-68
2023/04/01 14:09:04;;;;;;;;;;;;;;;;;;5131446;28;19988;-69
2023/04/01 14:11:30;;;;;;;;;;;;;;;;;;5131372;27;19916;-69
2023/04/01 14:13:56;;;;;;;;;;;;;;;;;;5131003;28;19908;-68
2023/04/01 14:16:22;;;;;;;;;;;;;;;;;;5131409;28;19961;-69
2023/04/01 14:18:48;;;;;;;;;;;;;;;;;;5131291;28;19912;-69
2023/04/01 14:21:14;;;;;;;;;;;;;;;;;;5130763;28;19994;-69
2023/04/01 14:23:41;;;;;;;;;;;;;;;;;;5131213;28;19908;-68
2023/04/01 14:26:07;;;;;;;;;;;;;;;;;;5131116;27;20424;-68
2023/04/01 14:28:33;;;;;;;;;;;;;;;;;;5130695;28;19998;-68
2023/04/01 14:30:59;;;;;;;;;;;;;;;;;;5130817;28;20018;-68
2023/04/01 14:33:25;;;;;;;;;;;;;;;;;;5129541;28;19908;-68
2023/04/01 14:35:50;;;;;;;;;;;;;;;;;;5131064;28;19908;-68
2023/04/01 14:38:16;;;;;;;;;;;;;;;;;;5130944;28;20011;-68
2023/04/01 14:40:42;;;;;;;;;;;;;;;;;;5130657;28;19920;-68
2023/04/01 14:43:08;;;;;;;;;;;;;;;;;;5121317;28;19915;-68
2023/04/01 14:45:34;;;;;;;;;;;;;;;;;;5115723;28;20044;-68
2023/04/01 14:48:00;;;;;;;;;;;;;;;;;;5116844;28;19908;-68
2023/04/01 14:50:26;;;;;;;;;;;;;;;;;;5116885;28;19911;-69
2023/04/01 14:52:52;;;;;;;;;;;;;;;;;;5117246;28;20364;-68
2023/04/01 14:55:18;;;;;;;;;;;;;;;;;;5116490;28;20252;-69
2023/04/01 14:57:44;;;;;;;;;;;;;;;;;;5116731;28;20295;-68
2023/04/01 15:00:10;;;;;;;;;;;;;;;;;;5116617;28;19936;-68
2023/04/01 15:02:36;;;;;;;;;;;;;;;;;;5115163;28;20367;-69
2023/04/01 15:05:02;;;;;;;;;;;;;;;;;;5116952;28;19959;-68
2023/04/01 15:07:28;;;;;;;;;;;;;;;;;;5117115;28;19908;-70
2023/04/01 15:09:55;;;;;;;;;;;;;;;;;;5116617;28;19936;-69
2023/04/01 15:12:21;;;;;;;;;;;;;;;;;;5116905;28;19919;-70
2023/04/01 15:14:47;;;;;;;;;;;;;;;;;;5116756;28;20344;-69
2023/04/01 15:17:13;;;;;;;;;;;;;;;;;;5116362;28;19943;-68
2023/04/01 15:20:51;;;;;;;;;;;;;;;;;;5091894;27;19923;-69
2023/04/01 15:23:17;;;;;;;;;;;;;;;;;;5090959;28;20351;-68
2023/04/01 15:25:43;;;;;;;;;;;;;;;;;;5091185;28;19908;-69
2023/04/01 15:28:09;;;;;;;;;;;;;;;;;;5091315;28;19909;-69
2023/04/01 15:30:35;;;;;;;;;;;;;;;;;;5090739;28;20383;-69
2023/04/01 15:33:01;;;;;;;;;;;;;;;;;;5091055;28;19919;-70
2023/04/01 15:35:27;;;;;;;;;;;;;;;;;;5090926;28;19908;-69
2023/04/01 15:37:53;;;;;;;;;;;;;;;;;;5090657;28;19908;-68
2023/04/01 15:43:24;;;;;;;;;;;;;;;;;;5112503;27;19916;-69
2023/04/01 15:47:06;;;;;;;;;;;;;;;;;;5091999;27;19922;-69
2023/04/01 15:49:34;;;;;;;;;;;;;;;;;;5091331;28;20074;-69
2023/04/01 15:52:00;;;;;;;;;;;;;;;;;;5090908;28;19913;-69
2023/04/01 15:54:26;;;;;;;;;;;;;;;;;;5091203;28;20012;-69
2023/04/01 15:56:51;;;;;;;;;;;;;;;;;;5091158;28;19908;-69
2023/04/01 15:59:17;;;;;;;;;;;;;;;;;;5090795;28;19908;-69
2023/04/01 16:01:43;;;;;;;;;;;;;;;;;;5091205;28;20011;-69
2023/04/01 16:05:48;;;;;;;;;;;;;;;;;;5111552;27;19912;-69
2023/04/01 16:08:14;;;;;;;;;;;;;;;;;;5111636;28;20010;-70
2023/04/01 16:10:51;;;;;;;;;;;;;;;;;;5092246;27;19916;-69
2023/04/01 16:13:17;;;;;;;;;;;;;;;;;;5090987;28;19974;-70
2023/04/01 16:15:43;;;;;;;;;;;;;;;;;;5091400;28;20322;-69
2023/04/01 16:18:09;;;;;;;;;;;;;;;;;;5091521;28;20284;-69
2023/04/01 16:22:52;;;;;;;;;;;;;;;;;;5112288;27;20414;-70
2023/04/01 16:25:17;;;;;;;;;;;;;;;;;;5111656;28;19912;-69
2023/04/01 16:32:22;;;;;;;;;;;;;;;;;;5071150;27;19913;-67
2023/04/01 16:34:48;;;;;;;;;;;;;;;;;;5070737;28;19912;-68
2023/04/01 16:37:15;;;;;;;;;;;;;;;;;;5070981;28;20333;-69
2023/04/01 16:39:43;;;;;;;;;;;;;;;;;;5071088;28;19912;-70
2023/04/01 16:46:31;;;;;;;;;;;;;;;;;;5111988;27;19916;-68
2023/04/01 16:48:57;;;;;;;;;;;;;;;;;;5111238;28;19934;-69
2023/04/01 16:51:23;;;;;;;;;;;;;;;;;;5111603;28;19908;-69
2023/04/01 16:53:49;;;;;;;;;;;;;;;;;;5111605;28;19908;-69
2023/04/01 16:57:17;;;;;;;;;;;;;;;;;;5091668;27;19916;-68
2023/04/01 16:59:43;;;;;;;;;;;;;;;;;;5091308;28;19948;-68
2023/04/01 17:02:09;;;;;;;;;;;;;;;;;;5090983;28;19947;-68
2023/04/01 17:06:50;;;;;;;;;;;;;;;;;;5091453;27;19916;-69
2023/04/01 17:09:16;;;;;;;;;;;;;;;;;;5090961;28;19912;-69
2023/04/01 17:11:42;;;;;;;;;;;;;;;;;;5091434;28;19962;-69
2023/04/01 17:14:08;;;;;;;;;;;;;;;;;;5091278;28;19915;-69
2023/04/01 17:16:34;;;;;;;;;;;;;;;;;;5090704;28;19916;-68
2023/04/01 17:19:00;;;;;;;;;;;;;;;;;;5091180;28;19919;-68
2023/04/01 17:21:26;;;;;;;;;;;;;;;;;;5091211;28;19908;-68
2023/04/01 17:26:27;;;;;;;;;;;;;;;;;;5091964;27;19923;-68
2023/04/01 17:28:53;;;;;;;;;;;;;;;;;;5091296;28;20357;-69
2023/04/01 17:31:19;;;;;;;;;;;;;;;;;;5090863;28;19988;-68
2023/04/01 17:33:45;;;;;;;;;;;;;;;;;;5091363;28;19909;-68
2023/04/01 17:36:39;;;;;;;;;;;;;;;;;;5111482;27;19916;-68
2023/04/01 17:39:05;;;;;;;;;;;;;;;;;;5111721;28;19957;-67
2023/04/01 17:42:43;;;;;;;;;;;;;;;;;;5071382;28;19923;-69
2023/04/01 17:45:09;;;;;;;;;;;;;;;;;;5070710;28;19955;-69
2023/04/01 17:47:35;;;;;;;;;;;;;;;;;;5071094;28;20014;-69
2023/04/01 17:50:01;;;;;;;;;;;;;;;;;;5071096;28;19948;-67
2023/04/01 17:52:27;;;;;;;;;;;;;;;;;;5070497;28;19909;-68
2023/04/01 17:58:06;;;;;;;;;;;;;;;;;;5090925;28;19919;-69
2023/04/01 18:01:27;;;;;;;;;;;;;;;;;;5152893;27;20013;-69
2023/04/01 18:03:52;;;;;;;;;;;;;;;;;;5152852;27;20329;-69
2023/04/01 18:06:36;;;;;;;;;;;;;;;;;;5090837;27;19912;-69
2023/04/01 18:09:21;;;;;;;;;;;;;;;;;;5091814;27;19938;-69
2023/04/01 18:11:47;;;;;;;;;;;;;;;;;;5090972;28;20542;-69
2023/04/01 18:15:05;;;;;;;;;;;;;;;;;;5112290;27;19912;-69
2023/04/01 18:17:32;;;;;;;;;;;;;;;;;;5111676;28;20039;-69
2023/04/01 18:19:58;;;;;;;;;;;;;;;;;;5111107;28;19912;-69
2023/04/01 18:22:24;;;;;;;;;;;;;;;;;;5111559;28;19908;-69
2023/04/01 18:24:50;;;;;;;;;;;;;;;;;;5111526;28;19918;-69
2023/04/01 18:27:16;;;;;;;;;;;;;;;;;;5111181;28;19912;-70
2023/04/01 18:29:42;;;;;;;;;;;;;;;;;;5111513;28;19968;-70
2023/04/01 18:32:08;;;;;;;;;;;;;;;;;;5110243;28;19908;-69
2023/04/01 18:34:34;;;;;;;;;;;;;;;;;;5110868;28;20027;-68
2023/04/01 18:37:00;;;;;;;;;;;;;;;;;;5111601;28;19909;-68